createdAt,value
2017-04-20T00:00:40.918Z,1006.22
2017-04-20T00:01:51.240Z,1006.17
2017-04-20T00:03:01.561Z,1006.13
2017-04-20T00:04:11.879Z,1006.18
2017-04-20T00:05:22.214Z,1006.19
2017-04-20T00:06:32.589Z,1006.27
2017-04-20T00:07:43.259Z,1006.17
2017-04-20T00:08:53.610Z,1006.19
2017-04-20T00:10:03.935Z,1006.21
2017-04-20T00:11:14.257Z,1006.22
2017-04-20T00:12:24.323Z,1006.21
2017-04-20T00:13:34.337Z,1006.15
2017-04-20T00:14:44.731Z,1006.23
2017-04-20T00:15:55.104Z,1006.2
2017-04-20T00:17:05.416Z,1006.39
2017-04-20T00:18:15.427Z,1006.22
2017-04-20T00:19:25.465Z,1006.2
2017-04-20T00:20:35.483Z,1006.14
2017-04-20T00:21:45.800Z,1006.23
2017-04-20T00:22:56.363Z,1006.14
2017-04-20T00:24:06.368Z,1006.17
2017-04-20T00:25:16.423Z,1006.08
2017-04-20T00:26:26.775Z,1006.14
2017-04-20T00:27:37.104Z,1006.18
2017-04-20T00:28:47.439Z,1006.18
2017-04-20T00:29:57.789Z,1006.16
2017-04-20T00:31:08.118Z,1006.17
2017-04-20T00:32:18.443Z,1006.15
2017-04-20T00:33:28.775Z,1006.14
2017-04-20T00:34:39.102Z,1006.1
2017-04-20T00:35:49.422Z,1006.15
2017-04-20T00:36:59.756Z,1006.08
2017-04-20T00:38:10.078Z,1006.07
2017-04-20T00:39:20.424Z,1006.16
2017-04-20T00:40:30.766Z,1006.14
2017-04-20T00:41:41.104Z,1006.1
2017-04-20T00:42:51.424Z,1006.06
2017-04-20T00:44:01.450Z,1006.08
2017-04-20T00:45:11.792Z,1006.12
2017-04-20T00:46:22.121Z,1006.07
2017-04-20T00:47:31.873Z,1006.05
2017-04-20T00:48:41.882Z,1006.07
2017-04-20T00:49:51.591Z,1006.07
2017-04-20T00:51:01.947Z,1006.06
2017-04-20T00:52:12.280Z,1006.07
2017-04-20T00:53:22.603Z,1006.08
2017-04-20T00:54:32.927Z,1006.15
2017-04-20T00:55:42.956Z,1006.14
2017-04-20T00:56:53.293Z,1006.1
2017-04-20T00:58:02.992Z,1006.13
2017-04-20T00:59:13.009Z,1006.1
2017-04-20T01:00:23.339Z,1006.14
2017-04-20T01:01:33.675Z,1006.14
2017-04-20T01:02:43.678Z,1006.2
2017-04-20T01:03:54.016Z,1006.12
2017-04-20T01:05:04.652Z,1006.07
2017-04-20T01:06:14.837Z,1006.07
2017-04-20T01:07:25.454Z,1006.06
2017-04-20T01:08:35.480Z,1006.1
2017-04-20T01:09:45.164Z,1006.17
2017-04-20T01:10:55.489Z,1006.1
2017-04-20T01:12:05.810Z,1006.03
2017-04-20T01:13:16.135Z,1006
2017-04-20T01:14:26.449Z,1005.98
2017-04-20T01:15:36.768Z,1005.9
2017-04-20T01:16:46.769Z,1005.88
2017-04-20T01:17:57.100Z,1005.97
2017-04-20T01:19:07.128Z,1005.9
2017-04-20T01:20:17.471Z,1005.91
2017-04-20T01:21:27.162Z,1005.86
2017-04-20T01:22:37.487Z,1005.9
2017-04-20T01:23:47.824Z,1005.89
2017-04-20T01:24:58.148Z,1005.92
2017-04-20T01:26:08.470Z,1005.75
2017-04-20T01:27:18.799Z,1005.85
2017-04-20T01:28:29.151Z,1005.79
2017-04-20T01:29:39.475Z,1005.82
2017-04-20T01:30:49.483Z,1005.76
2017-04-20T01:31:59.843Z,1005.78
2017-04-20T01:33:09.858Z,1005.77
2017-04-20T01:34:45.539Z,1005.8
2017-04-20T01:35:55.859Z,1005.82
2017-04-20T01:37:06.203Z,1005.75
2017-04-20T01:38:16.225Z,1005.78
2017-04-20T01:39:26.548Z,1005.77
2017-04-20T01:40:36.875Z,1005.85
2017-04-20T01:41:46.880Z,1005.88
2017-04-20T01:42:57.217Z,1005.87
2017-04-20T01:44:07.549Z,1005.69
2017-04-20T01:45:17.879Z,1005.82
2017-04-20T01:46:28.222Z,1005.76
2017-04-20T01:47:38.559Z,1005.84
2017-04-20T01:48:48.900Z,1005.9
2017-04-20T01:49:59.235Z,1005.92
2017-04-20T01:51:09.576Z,1005.96
2017-04-20T01:52:19.883Z,1006.01
2017-04-20T01:53:30.260Z,1005.97
2017-04-20T01:54:40.271Z,1005.99
2017-04-20T01:55:50.605Z,1005.96
2017-04-20T01:57:00.992Z,1006
2017-04-20T01:58:11.339Z,1005.97
2017-04-20T01:59:21.680Z,1005.88
2017-04-20T02:00:32.008Z,1006.13
2017-04-20T02:01:42.331Z,1006.03
2017-04-20T02:02:52.661Z,1006.08
2017-04-20T02:04:02.984Z,1005.85
2017-04-20T02:05:13.019Z,1006.08
2017-04-20T02:06:22.732Z,1006.1
2017-04-20T02:07:33.060Z,1006.16
2017-04-20T02:08:43.391Z,1006.17
2017-04-20T02:09:53.413Z,1006.09
2017-04-20T02:11:03.434Z,1006.13
2017-04-20T02:12:13.150Z,1006.12
2017-04-20T02:13:23.479Z,1006.15
2017-04-20T02:14:33.817Z,1006.16
2017-04-20T02:15:44.151Z,1006.16
2017-04-20T02:16:54.503Z,1006.15
2017-04-20T02:18:04.839Z,1006.16
2017-04-20T02:19:15.180Z,1006.21
2017-04-20T02:20:25.527Z,1006.23
2017-04-20T02:21:35.919Z,1006.25
2017-04-20T02:22:46.401Z,1006.25
2017-04-20T02:23:56.418Z,1006.13
2017-04-20T02:25:06.765Z,1006.25
2017-04-20T02:26:16.796Z,1006.19
2017-04-20T02:27:26.808Z,1006.25
2017-04-20T02:28:37.144Z,1006.22
2017-04-20T02:29:46.877Z,1006.38
2017-04-20T02:30:57.234Z,1006.26
2017-04-20T02:32:07.594Z,1006.22
2017-04-20T02:33:17.614Z,1006.21
2017-04-20T02:34:27.949Z,1006.38
2017-04-20T02:35:38.282Z,1006.34
2017-04-20T02:36:48.627Z,1006.25
2017-04-20T02:37:58.634Z,1006.4
2017-04-20T02:39:08.972Z,1006.3
2017-04-20T02:40:19.326Z,1006.31
2017-04-20T02:41:29.690Z,1006.27
2017-04-20T02:42:40.020Z,1006.32
2017-04-20T02:43:50.391Z,1006.4
2017-04-20T02:45:00.711Z,1006.38
2017-04-20T02:46:11.045Z,1006.4
2017-04-20T02:47:21.072Z,1006.44
2017-04-20T02:48:31.399Z,1006.41
2017-04-20T02:49:41.449Z,1006.37
2017-04-20T02:50:51.835Z,1006.41
2017-04-20T02:52:02.162Z,1006.46
2017-04-20T02:53:12.481Z,1006.45
2017-04-20T02:54:22.839Z,1006.44
2017-04-20T02:55:33.198Z,1006.44
2017-04-20T02:56:43.749Z,1006.4
2017-04-20T02:57:54.083Z,1006.4
2017-04-20T02:59:04.103Z,1006.64
2017-04-20T03:00:14.468Z,1006.52
2017-04-20T03:01:24.803Z,1006.47
2017-04-20T03:02:35.152Z,1006.49
2017-04-20T03:33:05.105Z,1006.88
2017-04-20T03:34:15.440Z,1006.89
2017-04-20T03:35:25.748Z,1006.82
2017-04-20T03:36:36.085Z,1006.83
2017-04-20T03:37:46.430Z,1006.86
2017-04-20T03:38:56.768Z,1006.87
2017-04-20T03:40:07.127Z,1006.89
2017-04-20T03:41:17.451Z,1006.95
2017-04-20T03:42:27.466Z,1006.84
2017-04-20T03:43:37.479Z,1007.02
2017-04-20T03:44:47.802Z,1006.98
2017-04-20T03:45:57.823Z,1006.96
2017-04-20T03:47:08.177Z,1007.01
2017-04-20T03:48:18.498Z,1007.02
2017-04-20T03:49:28.832Z,1007.01
2017-04-20T03:50:38.840Z,1007.04
2017-04-20T03:51:48.852Z,1007.01
2017-04-20T03:52:58.872Z,1007.12
2017-04-20T03:54:08.886Z,1007.06
2017-04-20T03:55:18.917Z,1007.08
2017-04-20T03:56:29.284Z,1007.09
2017-04-20T03:57:39.009Z,1007.06
2017-04-20T03:58:49.364Z,1007.1
2017-04-20T03:59:59.746Z,1007.09
2017-04-20T04:01:10.085Z,1007.05
2017-04-20T04:02:20.414Z,1007.1
2017-04-20T04:03:30.740Z,1007.07
2017-04-20T04:04:41.144Z,1007.23
2017-04-20T04:05:51.460Z,1007.17
2017-04-20T04:07:01.504Z,1007.09
2017-04-20T04:08:11.543Z,1007.13
2017-04-20T04:09:21.577Z,1007.13
2017-04-20T04:10:31.900Z,1007.15
2017-04-20T04:11:42.245Z,1007.16
2017-04-20T04:12:52.254Z,1007.27
2017-04-20T04:14:02.309Z,1007.16
2017-04-20T04:15:12.327Z,1007.32
2017-04-20T04:16:22.648Z,1007.35
2017-04-20T04:17:32.691Z,1007.22
2017-04-20T04:18:42.707Z,1007.23
2017-04-20T04:19:53.029Z,1007.33
2017-04-20T04:21:03.355Z,1007.31
2017-04-20T04:22:13.366Z,1007.35
2017-04-20T04:23:23.080Z,1007.27
2017-04-20T04:24:33.452Z,1007.28
2017-04-20T04:25:43.801Z,1007.32
2017-04-20T04:26:53.819Z,1007.3
2017-04-20T04:28:04.154Z,1007.31
2017-04-20T04:29:14.158Z,1007.35
2017-04-20T04:30:23.857Z,1007.33
2017-04-20T04:31:33.869Z,1007.39
2017-04-20T04:32:44.207Z,1007.3
2017-04-20T04:33:54.222Z,1007.36
2017-04-20T04:35:04.583Z,1007.37
2017-04-20T04:36:14.596Z,1007.3
2017-04-20T04:37:25.040Z,1007.45
2017-04-20T04:38:35.573Z,1007.41
2017-04-20T04:39:46.283Z,1007.48
2017-04-20T04:40:55.997Z,1007.46
2017-04-20T04:42:06.402Z,1007.38
2017-04-20T04:43:16.723Z,1007.49
2017-04-20T04:44:26.764Z,1007.44
2017-04-20T04:45:37.095Z,1007.47
2017-04-20T04:46:47.454Z,1007.49
2017-04-20T04:47:57.783Z,1007.44
2017-04-20T04:49:08.120Z,1007.53
2017-04-20T04:50:17.504Z,1007.5
2017-04-20T04:51:27.826Z,1007.57
2017-04-20T04:52:38.137Z,1007.53
2017-04-20T04:53:48.465Z,1007.61
2017-04-20T04:54:58.175Z,1007.52
2017-04-20T04:56:08.517Z,1007.59
2017-04-20T04:57:18.862Z,1007.55
2017-04-20T04:58:29.205Z,1007.65
2017-04-20T04:59:39.226Z,1007.57
2017-04-20T05:00:49.289Z,1007.55
2017-04-20T05:01:59.613Z,1007.61
2017-04-20T05:03:09.637Z,1007.67
2017-04-20T05:04:19.963Z,1007.68
2017-04-20T05:05:30.284Z,1007.72
2017-04-20T05:06:40.620Z,1007.59
2017-04-20T05:07:50.963Z,1007.72
2017-04-20T05:09:01.526Z,1007.75
2017-04-20T05:10:11.867Z,1007.76
2017-04-20T05:11:22.208Z,1007.7
2017-04-20T05:12:32.542Z,1007.8
2017-04-20T05:13:42.614Z,1007.7
2017-04-20T05:14:52.954Z,1007.81
2017-04-20T05:16:03.090Z,1007.8
2017-04-20T05:17:13.427Z,1007.76
2017-04-20T05:18:23.760Z,1007.8
2017-04-20T05:19:34.080Z,1007.83
2017-04-20T05:20:44.084Z,1007.79
2017-04-20T05:21:54.419Z,1007.9
2017-04-20T05:23:04.731Z,1007.89
2017-04-20T05:24:14.785Z,1007.94
2017-04-20T05:25:25.111Z,1007.9
2017-04-20T05:26:35.124Z,1007.87
2017-04-20T05:27:45.452Z,1007.88
2017-04-20T05:28:55.806Z,1007.92
2017-04-20T05:30:05.821Z,1007.9
2017-04-20T05:31:15.840Z,1007.89
2017-04-20T05:32:26.163Z,1008.01
2017-04-20T05:33:36.503Z,1007.9
2017-04-20T05:34:46.514Z,1008
2017-04-20T05:35:56.847Z,1007.97
2017-04-20T05:37:06.868Z,1008.17
2017-04-20T05:38:16.889Z,1008.07
2017-04-20T05:39:27.211Z,1008.05
2017-04-20T05:40:37.543Z,1008.04
2017-04-20T05:41:47.576Z,1008.03
2017-04-20T05:42:57.907Z,1008.09
2017-04-20T05:44:08.256Z,1008.13
2017-04-20T05:45:18.573Z,1008.07
2017-04-20T05:46:28.609Z,1008.04
2017-04-20T05:47:38.938Z,1008.17
2017-04-20T05:48:49.253Z,1008.2
2017-04-20T05:49:59.588Z,1008.07
2017-04-20T05:51:09.538Z,1008.17
2017-04-20T05:52:19.859Z,1008.21
2017-04-20T05:53:30.265Z,1008.25
2017-04-20T05:54:40.581Z,1008.27
2017-04-20T05:55:50.598Z,1008.26
2017-04-20T05:57:00.929Z,1008.28
2017-04-20T05:58:11.269Z,1008.32
2017-04-20T05:59:21.589Z,1008.3
2017-04-20T06:00:31.937Z,1008.25
2017-04-20T06:01:42.267Z,1008.32
2017-04-20T06:02:52.601Z,1008.34
2017-04-20T06:04:02.924Z,1008.36
2017-04-20T06:05:12.949Z,1008.29
2017-04-20T06:06:23.311Z,1008.27
2017-04-20T06:07:33.634Z,1008.42
2017-04-20T06:08:43.958Z,1008.44
2017-04-20T06:09:54.284Z,1008.41
2017-04-20T06:11:04.618Z,1008.33
2017-04-20T06:12:14.640Z,1008.35
2017-04-20T06:13:24.977Z,1008.45
2017-04-20T06:14:35.323Z,1008.39
2017-04-20T06:15:45.325Z,1008.4
2017-04-20T06:16:55.652Z,1008.46
2017-04-20T06:18:05.983Z,1008.48
2017-04-20T06:19:15.989Z,1008.49
2017-04-20T06:20:26.015Z,1008.6
2017-04-20T06:21:36.349Z,1008.56
2017-04-20T06:22:46.669Z,1008.65
2017-04-20T06:23:56.694Z,1008.54
2017-04-20T06:25:07.049Z,1008.62
2017-04-20T06:26:17.495Z,1008.63
2017-04-20T06:27:27.830Z,1008.65
2017-04-20T06:28:38.197Z,1008.68
2017-04-20T06:29:48.586Z,1008.66
2017-04-20T06:30:58.601Z,1008.74
2017-04-20T06:32:08.939Z,1008.68
2017-04-20T06:33:19.445Z,1008.65
2017-04-20T06:34:29.893Z,1008.7
2017-04-20T06:35:39.905Z,1008.98
2017-04-20T06:36:49.945Z,1008.72
2017-04-20T06:38:00.282Z,1008.78
2017-04-20T06:39:10.291Z,1008.76
2017-04-20T06:40:20.300Z,1008.77
2017-04-20T06:41:30.632Z,1008.8
2017-04-20T06:42:40.962Z,1008.87
2017-04-20T06:43:51.286Z,1008.87
2017-04-20T06:45:01.619Z,1008.86
2017-04-20T06:46:11.658Z,1008.89
2017-04-20T06:47:22.003Z,1008.85
2017-04-20T06:48:32.341Z,1008.88
2017-04-20T06:49:42.674Z,1008.9
2017-04-20T06:50:53.010Z,1008.86
2017-04-20T06:52:03.353Z,1008.9
2017-04-20T06:53:13.693Z,1008.94
2017-04-20T06:54:24.016Z,1008.93
2017-04-20T06:55:34.347Z,1008.88
2017-04-20T06:56:44.656Z,1008.88
2017-04-20T06:57:55.031Z,1008.93
2017-04-20T06:59:05.359Z,1008.99
2017-04-20T07:00:15.692Z,1008.93
2017-04-20T07:01:25.745Z,1009
2017-04-20T07:02:36.087Z,1008.88
2017-04-20T07:03:46.413Z,1008.93
2017-04-20T07:04:56.745Z,1008.91
2017-04-20T07:06:07.086Z,1008.95
2017-04-20T07:07:17.102Z,1008.87
2017-04-20T07:08:27.449Z,1009.04
2017-04-20T07:09:37.989Z,1009.12
2017-04-20T07:10:47.992Z,1009.09
2017-04-20T07:11:58.320Z,1009.09
2017-04-20T07:13:08.668Z,1009.11
2017-04-20T07:14:18.976Z,1009.05
2017-04-20T07:15:29.316Z,1009.04
2017-04-20T07:16:39.636Z,1009.04
2017-04-20T07:17:49.963Z,1009.12
2017-04-20T07:18:59.966Z,1009.05
2017-04-20T07:20:10.287Z,1009.13
2017-04-20T07:21:20.301Z,1009.1
2017-04-20T07:22:30.332Z,1009.05
2017-04-20T07:23:40.659Z,1009.1
2017-04-20T07:24:51.025Z,1009.15
2017-04-20T07:26:01.366Z,1009.08
2017-04-20T07:27:11.389Z,1009.18
2017-04-20T07:28:21.733Z,1009.18
2017-04-20T07:29:32.067Z,1009.07
2017-04-20T07:30:42.426Z,1009.12
2017-04-20T07:31:52.762Z,1009.19
2017-04-20T07:33:03.147Z,1009.15
2017-04-20T07:34:12.858Z,1009.15
2017-04-20T07:35:22.859Z,1009.19
2017-04-20T07:36:32.893Z,1009.17
2017-04-20T07:37:42.911Z,1009.21
2017-04-20T07:38:53.265Z,1009.21
2017-04-20T07:40:02.973Z,1009.21
2017-04-20T07:41:12.982Z,1009.25
2017-04-20T07:42:23.021Z,1009.27
2017-04-20T07:43:33.035Z,1009.2
2017-04-20T07:44:43.402Z,1009.28
2017-04-20T07:45:53.746Z,1009.34
2017-04-20T07:47:03.752Z,1009.27
2017-04-20T07:48:14.114Z,1009.3
2017-04-20T07:49:24.536Z,1009.33
2017-04-20T07:50:34.572Z,1009.32
2017-04-20T07:51:45.174Z,1009.3
2017-04-20T07:52:55.681Z,1009.44
2017-04-20T07:54:05.693Z,1009.37
2017-04-20T07:55:15.713Z,1009.42
2017-04-20T07:56:25.728Z,1009.48
2017-04-20T07:57:35.734Z,1009.43
2017-04-20T07:58:45.760Z,1009.53
2017-04-20T07:59:55.479Z,1009.44
2017-04-20T08:01:05.815Z,1009.54
2017-04-20T08:02:16.134Z,1009.51
2017-04-20T08:03:26.136Z,1009.51
2017-04-20T08:04:36.489Z,1009.47
2017-04-20T08:05:46.496Z,1009.55
2017-04-20T08:06:56.831Z,1009.51
2017-04-20T08:08:07.154Z,1009.64
2017-04-20T08:09:17.208Z,1009.59
2017-04-20T08:10:27.538Z,1009.53
2017-04-20T08:11:37.886Z,1009.47
2017-04-20T08:12:48.204Z,1009.61
2017-04-20T08:13:58.547Z,1009.52
2017-04-20T08:15:08.884Z,1009.56
2017-04-20T08:16:19.224Z,1009.64
2017-04-20T08:17:29.545Z,1009.56
2017-04-20T08:18:39.556Z,1009.61
2017-04-20T08:19:49.910Z,1009.71
2017-04-20T08:20:59.937Z,1009.66
2017-04-20T08:22:09.983Z,1009.55
2017-04-20T08:23:20.000Z,1009.66
2017-04-20T08:24:30.360Z,1009.65
2017-04-20T08:25:40.694Z,1009.6
2017-04-20T08:26:50.713Z,1009.63
2017-04-20T08:28:00.718Z,1009.63
2017-04-20T08:29:11.051Z,1009.7
2017-04-20T08:30:21.076Z,1009.76
2017-04-20T08:31:31.403Z,1009.72
2017-04-20T08:32:41.415Z,1009.85
2017-04-20T08:33:51.737Z,1009.86
2017-04-20T08:35:02.062Z,1009.74
2017-04-20T08:36:12.400Z,1009.85
2017-04-20T08:37:22.442Z,1009.88
2017-04-20T08:38:32.771Z,1009.88
2017-04-20T08:39:43.102Z,1009.8
2017-04-20T08:40:53.121Z,1009.9
2017-04-20T08:42:03.454Z,1009.87
2017-04-20T08:43:13.779Z,1009.92
2017-04-20T08:44:23.786Z,1009.97
2017-04-20T08:45:33.798Z,1009.91
2017-04-20T08:46:44.134Z,1009.95
2017-04-20T08:47:54.458Z,1009.92
2017-04-20T08:49:04.787Z,1010.06
2017-04-20T08:50:15.126Z,1010
2017-04-20T08:51:25.148Z,1010.02
2017-04-20T08:52:35.476Z,1009.91
2017-04-20T08:53:45.836Z,1010.01
2017-04-20T08:54:56.168Z,1010
2017-04-20T08:56:06.504Z,1009.94
2017-04-20T08:57:16.831Z,1009.99
2017-04-20T08:58:27.181Z,1010
2017-04-20T08:59:37.412Z,1010.23
2017-04-20T09:00:47.746Z,1010.04
2017-04-20T09:01:58.122Z,1010.02
2017-04-20T09:03:08.145Z,1010.13
2017-04-20T09:04:18.472Z,1010.04
2017-04-20T09:05:28.498Z,1010.11
2017-04-20T09:06:38.534Z,1010.07
2017-04-20T09:07:48.872Z,1010.08
2017-04-20T09:08:59.223Z,1010.14
2017-04-20T09:10:09.560Z,1010.05
2017-04-20T09:11:19.589Z,1010.16
2017-04-20T09:12:29.927Z,1010.14
2017-04-20T09:13:40.254Z,1010.09
2017-04-20T09:14:50.291Z,1010.18
2017-04-20T09:16:00.617Z,1010.03
2017-04-20T09:17:10.669Z,1010.01
2017-04-20T09:18:20.986Z,1010.09
2017-04-20T09:19:31.013Z,1010.04
2017-04-20T09:20:41.034Z,1010.02
2017-04-20T09:21:51.368Z,1010.06
2017-04-20T09:23:01.685Z,1010.14
2017-04-20T09:24:12.013Z,1010.04
2017-04-20T09:25:22.360Z,1010.18
2017-04-20T09:26:32.393Z,1010.14
2017-04-20T09:27:42.757Z,1010.12
2017-04-20T09:28:53.093Z,1010.07
2017-04-20T09:30:03.458Z,1010.03
2017-04-20T09:31:13.465Z,1010.11
2017-04-20T09:32:23.797Z,1010.11
2017-04-20T09:33:34.149Z,1010.11
2017-04-20T09:34:44.491Z,1010.19
2017-04-20T09:35:54.506Z,1010.18
2017-04-20T09:37:04.522Z,1010.09
2017-04-20T09:38:14.850Z,1010.17
2017-04-20T09:39:25.347Z,1010.07
2017-04-20T09:40:35.728Z,1010.1
2017-04-20T09:41:46.379Z,1010.17
2017-04-20T09:42:56.398Z,1010.07
2017-04-20T09:44:06.466Z,1010.08
2017-04-20T09:45:16.274Z,1010.05
2017-04-20T09:46:26.623Z,1010.22
2017-04-20T09:47:36.645Z,1010.37
2017-04-20T09:48:46.976Z,1010.21
2017-04-20T09:49:56.999Z,1010.26
2017-04-20T09:51:07.333Z,1010.22
2017-04-20T09:52:17.375Z,1010.3
2017-04-20T09:53:27.406Z,1010.17
2017-04-20T09:54:37.735Z,1010.18
2017-04-20T09:55:48.061Z,1010.24
2017-04-20T09:56:58.396Z,1010.15
2017-04-20T09:58:08.125Z,1010.24
2017-04-20T09:59:18.456Z,1010.26
2017-04-20T10:00:28.798Z,1010.01
2017-04-20T10:01:39.321Z,1010.13
2017-04-20T10:02:49.361Z,1010.27
2017-04-20T10:03:59.083Z,1010.32
2017-04-20T10:05:09.456Z,1010.32
2017-04-20T10:06:19.478Z,1010.38
2017-04-20T10:07:29.821Z,1010.35
2017-04-20T10:08:40.147Z,1010.33
2017-04-20T10:09:50.153Z,1010.15
2017-04-20T10:11:00.190Z,1010.22
2017-04-20T10:12:10.208Z,1010.2
2017-04-20T10:13:20.231Z,1010.17
2017-04-20T10:14:30.573Z,1010.24
2017-04-20T10:15:40.900Z,1010.27
2017-04-20T10:16:51.007Z,1010.21
2017-04-20T10:18:01.356Z,1010.28
2017-04-20T10:19:11.690Z,1010.29
2017-04-20T10:20:21.712Z,1010.33
2017-04-20T10:21:31.543Z,1010.37
2017-04-20T10:22:41.570Z,1010.3
2017-04-20T10:23:52.140Z,1010.31
2017-04-20T10:25:02.559Z,1010.41
2017-04-20T10:26:12.920Z,1010.39
2017-04-20T10:27:23.257Z,1010.48
2017-04-20T10:28:33.018Z,1010.39
2017-04-20T10:29:43.351Z,1010.32
2017-04-20T10:30:53.372Z,1010.32
2017-04-20T10:32:03.701Z,1010.44
2017-04-20T10:33:14.031Z,1010.38
2017-04-20T10:34:24.363Z,1010.31
2017-04-20T10:35:34.718Z,1010.43
2017-04-20T10:36:45.046Z,1010.38
2017-04-20T10:37:55.368Z,1010.34
2017-04-20T10:39:05.069Z,1010.42
2017-04-20T10:40:15.095Z,1010.39
2017-04-20T10:41:25.443Z,1010.33
2017-04-20T10:42:35.783Z,1010.36
2017-04-20T10:43:45.781Z,1010.51
2017-04-20T10:44:55.798Z,1010.3
2017-04-20T10:46:06.128Z,1010.61
2017-04-20T10:47:16.153Z,1010.46
2017-04-20T10:48:26.184Z,1010.57
2017-04-20T10:49:36.205Z,1010.5
2017-04-20T10:50:46.536Z,1010.5
2017-04-20T10:51:56.891Z,1010.42
2017-04-20T10:53:07.222Z,1010.36
2017-04-20T10:54:17.556Z,1010.47
2017-04-20T10:55:27.884Z,1010.48
2017-04-20T10:56:38.223Z,1010.58
2017-04-20T10:57:48.632Z,1010.47
2017-04-20T10:58:58.965Z,1010.46
2017-04-20T11:00:08.989Z,1010.49
2017-04-20T11:01:18.694Z,1010.44
2017-04-20T11:02:29.172Z,1010.03
2017-04-20T11:03:39.506Z,1010.52
2017-04-20T11:04:49.544Z,1010.63
2017-04-20T11:05:59.873Z,1010.54
2017-04-20T11:07:09.890Z,1010.55
2017-04-20T11:08:19.897Z,1010.7
2017-04-20T11:09:29.920Z,1010.57
2017-04-20T11:10:39.665Z,1010.52
2017-04-20T11:11:49.993Z,1010.47
2017-04-20T11:13:00.020Z,1010.53
2017-04-20T11:14:10.364Z,1010.66
2017-04-20T11:15:20.677Z,1010.54
2017-04-20T11:16:31.011Z,1010.62
2017-04-20T11:17:40.726Z,1010.64
2017-04-20T11:18:51.067Z,1010.71
2017-04-20T11:20:01.090Z,1010.72
2017-04-20T11:21:11.410Z,1010.59
2017-04-20T11:22:21.737Z,1010.67
2017-04-20T11:23:32.054Z,1010.63
2017-04-20T11:24:42.372Z,1010.54
2017-04-20T11:25:52.114Z,1010.61
2017-04-20T11:27:02.441Z,1010.63
2017-04-20T11:28:12.763Z,1010.46
2017-04-20T11:29:22.777Z,1010.52
2017-04-20T11:30:33.125Z,1010.44
2017-04-20T11:31:43.456Z,1010.42
2017-04-20T11:32:53.788Z,1010.47
2017-04-20T11:34:04.126Z,1010.41
2017-04-20T11:35:14.133Z,1010.46
2017-04-20T11:36:23.721Z,1010.38
2017-04-20T11:37:33.440Z,1010.38
2017-04-20T11:38:43.459Z,1010.4
2017-04-20T11:39:53.816Z,1010.39
2017-04-20T11:41:04.162Z,1010.51
2017-04-20T11:42:14.516Z,1010.48
2017-04-20T11:43:24.906Z,1010.51
2017-04-20T11:44:35.297Z,1010.64
2017-04-20T11:45:45.332Z,1010.64
2017-04-20T11:46:55.341Z,1010.75
2017-04-20T11:48:05.362Z,1010.75
2017-04-20T11:49:15.694Z,1010.72
2017-04-20T11:50:26.014Z,1010.66
2017-04-20T11:51:36.343Z,1010.69
2017-04-20T11:52:46.672Z,1010.67
2017-04-20T11:53:56.712Z,1010.61
2017-04-20T11:55:06.740Z,1010.62
2017-04-20T11:56:17.069Z,1010.54
2017-04-20T11:57:26.821Z,1010.61
2017-04-20T11:58:36.859Z,1010.64
2017-04-20T11:59:46.877Z,1010.65
2017-04-20T12:00:57.206Z,1010.63
2017-04-20T12:02:07.239Z,1010.57
2017-04-20T12:03:17.608Z,1010.62
2017-04-20T12:04:27.930Z,1010.51
2017-04-20T12:05:37.937Z,1010.57
2017-04-20T12:06:48.268Z,1010.61
2017-04-20T12:07:58.276Z,1010.63
2017-04-20T12:09:08.293Z,1010.8
2017-04-20T12:10:18.629Z,1010.61
2017-04-20T12:11:28.643Z,1010.6
2017-04-20T12:12:38.958Z,1010.55
2017-04-20T12:13:48.978Z,1010.66
2017-04-20T12:14:59.315Z,1010.61
2017-04-20T12:16:09.798Z,1010.56
2017-04-20T12:17:19.806Z,1010.6
2017-04-20T12:18:30.165Z,1010.6
2017-04-20T12:19:40.193Z,1010.59
2017-04-20T12:20:50.205Z,1010.62
2017-04-20T12:22:00.526Z,1010.57
2017-04-20T12:23:10.827Z,1010.62
2017-04-20T12:24:21.184Z,1010.64
2017-04-20T12:25:31.537Z,1010.56
2017-04-20T12:26:41.857Z,1010.66
2017-04-20T12:27:51.889Z,1010.62
2017-04-20T12:29:01.917Z,1010.56
2017-04-20T12:30:11.939Z,1010.72
2017-04-20T12:31:22.266Z,1010.66
2017-04-20T12:32:32.610Z,1010.5
2017-04-20T12:33:42.951Z,1010.6
2017-04-20T12:34:52.966Z,1010.59
2017-04-20T12:36:03.276Z,1010.59
2017-04-20T12:37:13.302Z,1010.54
2017-04-20T12:38:23.333Z,1010.56
2017-04-20T12:39:33.335Z,1010.61
2017-04-20T12:40:43.657Z,1010.68
2017-04-20T12:41:53.684Z,1010.5
2017-04-20T12:43:04.055Z,1010.59
2017-04-20T12:44:14.095Z,1010.6
2017-04-20T12:45:24.468Z,1010.61
2017-04-20T12:46:34.800Z,1010.53
2017-04-20T12:47:44.823Z,1010.53
2017-04-20T12:48:55.156Z,1010.63
2017-04-20T12:50:05.527Z,1010.59
2017-04-20T12:51:15.845Z,1010.5
2017-04-20T12:52:26.190Z,1010.58
2017-04-20T12:53:36.218Z,1010.58
2017-04-20T12:54:46.288Z,1010.58
2017-04-20T12:55:56.617Z,1010.57
2017-04-20T12:57:06.936Z,1010.64
2017-04-20T12:58:16.660Z,1010.64
2017-04-20T12:59:26.727Z,1010.63
2017-04-20T13:00:36.568Z,1010.53
2017-04-20T13:01:46.988Z,1010.66
2017-04-20T13:02:57.487Z,1010.72
2017-04-20T13:04:07.614Z,1010.72
2017-04-20T13:05:17.421Z,1010.75
2017-04-20T13:06:27.896Z,1010.81
2017-04-20T13:07:38.232Z,1010.66
2017-04-20T13:08:47.929Z,1010.76
2017-04-20T13:09:57.633Z,1010.77
2017-04-20T13:11:07.978Z,1010.59
2017-04-20T13:12:18.000Z,1010.74
2017-04-20T13:13:28.339Z,1010.72
2017-04-20T13:14:38.364Z,1010.71
2017-04-20T13:15:48.410Z,1010.71
2017-04-20T13:16:58.737Z,1010.68
2017-04-20T13:18:09.072Z,1010.74
2017-04-20T13:19:18.778Z,1010.7
2017-04-20T13:20:28.785Z,1010.68
2017-04-20T13:21:39.135Z,1010.69
2017-04-20T13:22:49.461Z,1010.73
2017-04-20T13:23:59.168Z,1010.66
2017-04-20T13:25:09.523Z,1010.61
2017-04-20T13:26:19.867Z,1010.65
2017-04-20T13:27:29.896Z,1010.69
2017-04-20T13:28:40.219Z,1010.67
2017-04-20T13:29:50.490Z,1010.59
2017-04-20T13:31:00.817Z,1010.63
2017-04-20T13:32:10.527Z,1010.58
2017-04-20T13:33:20.886Z,1010.59
2017-04-20T13:34:31.447Z,1010.57
2017-04-20T13:35:41.805Z,1010.68
2017-04-20T13:36:52.160Z,1010.7
2017-04-20T13:38:02.503Z,1010.72
2017-04-20T13:39:12.899Z,1010.75
2017-04-20T13:40:22.928Z,1010.56
2017-04-20T13:41:33.362Z,1010.57
2017-04-20T13:42:43.391Z,1010.58
2017-04-20T13:43:53.892Z,1010.58
2017-04-20T13:45:04.252Z,1010.58
2017-04-20T13:46:14.597Z,1010.65
2017-04-20T13:47:24.930Z,1010.55
2017-04-20T13:48:35.272Z,1010.72
2017-04-20T13:49:45.600Z,1010.62
2017-04-20T13:50:55.944Z,1010.38
2017-04-20T13:52:06.272Z,1010.57
2017-04-20T13:53:15.980Z,1010.6
2017-04-20T13:54:26.331Z,1010.57
2017-04-20T13:55:36.669Z,1010.55
2017-04-20T13:56:47.024Z,1010.62
2017-04-20T13:57:57.365Z,1010.5
2017-04-20T13:59:07.704Z,1010.51
2017-04-20T14:00:18.045Z,1010.67
2017-04-20T14:01:28.095Z,1010.63
2017-04-20T14:02:38.431Z,1010.61
2017-04-20T14:03:48.775Z,1010.71
2017-04-20T14:04:58.795Z,1010.68
2017-04-20T14:06:08.199Z,1010.68
2017-04-20T14:07:18.225Z,1010.72
2017-04-20T14:08:28.244Z,1010.68
2017-04-20T14:09:38.568Z,1010.67
2017-04-20T14:10:48.589Z,1010.74
2017-04-20T14:11:58.626Z,1010.48
2017-04-20T14:13:08.640Z,1010.62
2017-04-20T14:14:18.982Z,1010.59
2017-04-20T14:15:29.317Z,1010.6
2017-04-20T14:16:39.649Z,1010.63
2017-04-20T14:17:50.221Z,1010.66
2017-04-20T14:19:00.565Z,1010.64
2017-04-20T14:20:10.939Z,1010.58
2017-04-20T14:21:21.466Z,1010.59
2017-04-20T14:22:31.809Z,1010.66
2017-04-20T14:23:41.516Z,1010.65
2017-04-20T14:24:52.043Z,1010.6
2017-04-20T14:26:02.083Z,1010.6
2017-04-20T14:27:12.414Z,1010.61
2017-04-20T14:28:22.729Z,1010.58
2017-04-20T14:29:32.765Z,1010.65
2017-04-20T14:30:43.117Z,1010.56
2017-04-20T14:31:53.463Z,1010.54
2017-04-20T14:33:03.803Z,1010.67
2017-04-20T14:34:14.136Z,1010.61
2017-04-20T14:35:24.163Z,1010.58
2017-04-20T14:36:34.207Z,1010.64
2017-04-20T14:37:44.535Z,1010.61
2017-04-20T14:38:54.860Z,1010.61
2017-04-20T14:40:05.201Z,1010.6
2017-04-20T14:41:15.553Z,1010.64
2017-04-20T14:42:25.586Z,1010.6